Terminal Aerodrome Forecast
Issued by NWS Sioux Falls, SD

Home | Current Version | Previous Version | Text Only | Print | Product List | Glossary Off
Versions: 1 2 3 4 5 6 7 8 9 10 11 12 13 14

875
FTUS43 KFSD 131722
TAFFSD
TAF
KFSD 131722Z 1318/1418 33024G34KT P6SM OVC020
     FM132200 33020G29KT P6SM OVC030
     FM140000 34011KT P6SM BKN035
     FM141300 30004KT P6SM BKN030=

USA.gov is the U.S. government's official web portal to all federal, state and local government web resources and services.